Date,TemperatureHighF,TemperatureAvgF,TemperatureLowF,DewpointHighF,DewpointAvgF,DewpointLowF,HumidityHigh,HumidityAvg,HumidityLow,PressureMaxIn,PressureMinIn,WindSpeedMaxMPH,WindSpeedAvgMPH,GustSpeedMaxMPH,PrecipitationSumIn
2013-1-1,48.9,40.6,36.1,45.3,40.3,36.1,100,99,87,29.89,29.26,14,5,14,0.01
2013-1-2,52.5,46.8,41.0,52.5,46.8,41.0,100,100,100,30.02,29.89,17,5,17,0.12
2013-1-3,55.8,52.1,50.7,55.8,52.1,50.7,100,100,99,30.38,30.01,17,7,20,0.01
2013-1-4,52.0,50.5,48.9,52.0,50.5,48.7,100,100,100,30.44,30.37,16,5,16,0.00
2013-1-5,52.0,50.2,47.8,52.0,50.2,47.8,100,100,100,30.42,30.24,14,3,14,0.07
2013-1-6,50.9,46.2,41.4,50.9,46.2,41.4,100,100,100,30.41,30.16,10,2,10,0.01
2013-1-7,50.0,48.8,47.5,50.0,48.8,47.5,100,100,100,30.16,29.96,7,1,7,0.19
2013-1-8,53.2,48.3,41.9,53.2,48.3,41.9,100,100,100,30.12,29.92,13,3,16,0.18
2013-1-9,48.6,42.3,39.4,48.4,42.3,39.4,100,100,100,30.12,30.01,9,4,9,0.01
2013-1-10,41.0,38.2,35.2,41.0,38.2,35.2,100,100,100,30.02,29.92,5,2,5,0.02
2013-1-11,42.6,39.0,33.8,42.6,39.0,33.8,100,100,100,29.99,29.92,3,1,3,0.00
2013-1-12,46.6,36.3,30.4,44.0,36.0,30.4,100,99,84,30.10,29.92,8,1,8,0.01
2013-1-13,37.6,35.5,33.3,37.6,35.5,33.3,100,100,100,30.11,29.93,8,2,8,0.04
2013-1-14,43.2,36.6,31.5,42.8,36.4,31.5,100,99,93,29.93,29.71,6,2,6,0.05
2013-1-15,41.4,33.5,26.1,41.0,33.5,26.1,100,100,99,29.89,29.78,4,1,5,0.00
2013-1-16,35.1,30.7,25.5,35.1,30.7,25.5,100,100,98,29.95,29.82,3,0,3,0.00
2013-1-17,36.5,34.0,32.5,34.7,32.9,30.3,100,96,84,29.97,29.77,11,2,11,0.00
2013-1-18,39.6,34.5,32.5,33.4,30.5,26.9,100,86,69,29.78,29.53,16,6,16,0.00
2013-1-19,43.3,35.2,29.5,38.8,34.6,29.5,100,98,83,29.71,29.55,14,4,14,0.00
2013-1-20,36.1,34.6,32.7,35.2,33.4,30.8,100,95,83,29.69,29.51,16,4,16,0.01
2013-1-21,36.5,35.4,33.4,36.5,35.3,33.4,100,100,93,29.51,29.45,21,8,21,0.15
2013-1-22,37.6,36.1,34.3,37.3,36.1,34.3,100,100,98,29.81,29.48,19,4,19,0.01
2013-1-23,37.2,34.0,30.4,37.2,34.0,30.4,100,100,100,29.93,29.81,3,1,4,0.01
2013-1-24,39.4,35.5,33.4,38.8,34.5,31.8,100,96,81,30.03,29.92,7,1,11,0.00
2013-1-25,36.3,34.3,32.9,35.6,33.7,31.7,100,98,85,29.92,29.35,12,1,12,0.14
2013-1-26,48.6,39.5,32.0,46.4,39.1,32.0,100,98,84,29.53,28.89,51,4,51,0.54
2013-1-27,48.9,42.7,38.1,48.9,42.5,37.9,100,99,91,29.16,28.72,21,9,21,0.30
2013-1-28,47.3,42.8,39.0,47.3,42.7,39.0,100,99,92,29.29,28.81,21,9,23,0.71
2013-1-29,53.1,46.8,44.1,53.1,45.7,40.3,100,96,77,29.29,28.89,31,8,31,0.30
2013-1-30,47.3,44.0,39.2,45.8,41.8,36.6,100,92,70,29.60,29.07,25,9,25,0.12
2013-1-31,46.0,42.0,38.5,46.0,42.0,38.3,100,100,99,29.61,29.16,26,6,26,0.47
2013-2-1,44.6,39.9,34.9,44.6,38.5,32.3,100,95,80,29.80,29.32,15,4,15,0.18
2013-2-2,51.1,37.8,31.5,36.9,33.2,29.5,100,85,51,30.16,29.80,8,3,11,0.00
2013-2-3,51.1,45.4,36.1,49.1,44.6,36.1,100,97,85,29.99,29.42,20,7,20,0.12
2013-2-4,49.3,39.1,33.4,49.3,38.6,33.4,100,98,85,29.53,29.28,31,9,31,0.25
2013-2-5,46.9,38.5,32.2,45.1,37.6,29.3,100,97,85,29.58,29.02,101,7,101,0.11
2013-2-6,45.9,40.0,34.7,37.7,32.9,29.7,90,76,60,30.11,29.58,19,7,19,0.00
2013-2-7,43.0,37.4,32.4,39.5,35.7,29.8,100,93,83,30.11,29.97,6,2,7,0.00
2013-2-8,47.5,39.8,33.6,41.4,37.8,33.6,100,93,69,30.15,30.03,8,2,8,0.05
2013-2-9,40.8,39.5,38.3,40.8,39.5,38.3,100,100,100,30.09,29.78,8,2,8,0.06
2013-2-10,39.7,38.1,36.9,39.7,38.1,36.7,100,100,100,29.78,29.38,19,5,19,0.11
2013-2-11,43.3,38.6,34.5,40.1,35.9,31.5,100,90,73,29.93,29.46,16,6,16,0.02
2013-2-12,41.0,37.2,34.9,34.9,33.6,32.0,97,87,78,30.06,29.92,9,2,9,0.00
2013-2-13,35.1,33.2,32.9,34.1,32.9,32.0,100,99,91,30.05,29.95,5,0,5,0.00
2013-2-14,51.6,42.2,32.9,50.4,41.9,32.9,100,99,90,29.95,29.54,14,4,14,0.56
2013-2-15,55.8,44.9,36.9,48.8,43.2,36.9,100,94,71,30.08,29.78,11,4,11,0.00
2013-2-16,48.7,42.9,36.5,48.7,42.9,36.5,100,100,100,30.09,30.06,6,1,6,0.00
2013-2-17,55.4,44.7,32.0,47.6,41.9,32.0,100,91,65,30.09,30.03,9,2,9,0.00
2013-2-18,56.7,37.2,26.8,47.9,35.2,26.8,100,94,65,30.10,30.06,4,1,5,0.00
2013-2-19,51.1,38.1,27.1,44.3,36.4,27.2,100,94,66,30.12,30.08,8,2,8,0.01
2013-2-20,43.3,40.1,29.1,42.9,39.0,29.1,100,96,86,30.29,30.13,6,3,6,0.01
2013-2-21,42.3,34.9,26.8,37.9,29.4,26.8,100,81,66,30.32,30.27,6,2,8,0.00
2013-2-22,38.5,35.4,33.4,31.0,28.3,25.2,86,75,67,30.31,30.26,7,1,7,0.00
2013-2-23,48.2,36.5,32.4,36.7,32.5,30.1,100,86,59,30.38,30.25,7,1,7,0.00
2013-2-24,53.2,38.2,32.4,42.2,36.6,32.4,100,94,64,30.47,30.38,8,1,8,0.02
2013-2-25,53.2,38.0,28.2,45.5,36.2,28.2,100,94,71,30.63,30.47,7,1,7,0.00
2013-2-26,53.2,38.9,30.6,48.0,37.4,30.6,100,95,67,30.68,30.62,8,2,8,0.01
2013-2-27,51.6,38.5,31.6,46.1,37.4,31.6,100,96,79,30.68,30.57,6,2,6,0.00
2013-2-28,52.2,39.2,30.6,51.3,39.1,30.6,100,100,91,30.57,30.49,7,2,7,0.00
2013-3-1,57.7,43.0,33.6,46.6,39.6,33.4,100,89,58,30.54,30.41,6,1,6,0.00
2013-3-2,62.2,46.2,33.8,51.7,43.1,33.8,100,90,66,30.42,30.22,10,3,10,0.00
2013-3-3,51.1,46.0,43.0,48.7,44.1,41.2,100,93,77,30.24,30.07,8,1,8,0.00
2013-3-4,51.3,43.1,34.0,42.5,39.7,33.8,100,89,67,30.07,29.72,6,1,8,0.00
2013-3-5,56.1,40.8,30.9,44.2,37.5,30.9,100,90,59,29.73,29.61,8,1,8,0.00
2013-3-6,43.3,40.6,38.1,43.2,40.6,37.9,100,100,98,29.71,29.64,13,4,13,0.02
2013-3-7,44.8,42.2,40.5,44.1,42.2,40.5,100,100,100,29.64,29.54,19,7,19,0.08
2013-3-8,41.7,40.5,39.2,41.7,40.5,39.2,100,100,100,29.70,29.55,19,9,19,0.02
2013-3-9,39.6,38.3,36.5,39.6,37.4,32.0,100,96,83,29.90,29.70,17,7,17,0.11
2013-3-10,42.4,34.1,26.6,40.5,32.2,26.6,100,93,77,30.11,29.90,19,5,19,0.04
2013-3-11,39.6,30.5,25.3,29.9,25.2,21.9,100,82,58,30.14,30.10,14,4,14,0.02
2013-3-12,50.2,36.2,23.9,35.6,29.4,21.2,94,77,54,30.13,29.89,9,3,9,0.00
2013-3-13,50.9,38.6,28.6,34.2,30.0,22.5,99,73,45,29.97,29.86,14,3,14,0.00
2013-3-14,46.6,37.8,27.9,44.8,36.8,26.0,100,96,90,29.97,29.55,10,3,11,0.06
2013-3-15,52.2,42.2,34.7,49.1,41.5,34.7,100,97,74,29.55,29.33,12,4,12,0.11
2013-3-16,39.0,35.2,30.7,39.0,35.2,30.7,100,100,100,29.36,29.16,8,2,8,0.26
2013-3-17,43.9,38.1,32.0,43.9,38.1,32.0,100,100,98,29.24,29.10,11,3,11,0.30
2013-3-18,40.8,37.6,32.4,40.8,37.6,32.4,100,100,100,29.52,29.23,21,7,21,0.07
2013-3-19,36.5,34.7,32.7,36.3,34.7,32.7,100,100,100,29.65,29.52,17,6,17,0.28
2013-3-20,42.1,36.8,31.8,40.0,35.8,31.8,100,96,80,30.04,29.65,12,5,12,0.01
2013-3-21,42.6,35.3,29.7,37.2,32.6,29.7,100,90,67,30.08,29.99,22,6,22,0.00
2013-3-22,37.2,35.5,33.1,36.4,34.2,32.6,100,95,85,30.02,29.93,24,11,24,0.04
2013-3-23,35.4,34.8,33.8,35.1,31.7,25.9,100,89,73,30.18,30.01,25,11,25,0.05
2013-3-24,38.1,35.7,34.2,32.5,29.7,27.1,87,78,66,30.29,30.17,23,10,23,0.00
2013-3-25,38.7,35.7,33.8,33.5,31.4,29.3,94,85,74,30.30,30.24,20,7,20,0.00
2013-3-26,41.9,34.9,30.4,39.0,32.7,29.0,100,92,72,30.25,30.15,17,4,17,0.02
2013-3-27,44.4,34.5,29.5,39.4,33.2,29.5,100,95,66,30.15,30.08,14,3,14,0.05
2013-3-28,46.8,37.0,32.0,42.4,32.4,28.0,100,85,56,30.10,30.03,12,3,12,0.08
2013-3-29,48.6,36.9,30.4,40.7,32.9,28.4,100,87,56,30.03,29.91,12,2,12,0.00
2013-3-30,50.0,36.3,27.0,36.6,31.2,27.0,100,83,50,30.01,29.94,7,2,7,0.00
2013-3-31,45.9,35.6,24.4,39.1,29.2,24.5,100,80,51,30.01,29.97,10,2,10,0.00
2013-4-1,46.8,36.5,25.7,32.9,29.3,25.2,100,77,56,30.08,29.99,14,4,14,0.00
2013-4-2,49.5,39.3,32.7,38.5,32.7,28.9,100,78,49,30.24,30.08,11,2,11,0.00
2013-4-3,54.1,39.8,26.4,45.4,33.3,26.4,100,80,51,30.30,30.24,11,2,11,0.00
2013-4-4,54.0,42.0,33.1,40.6,36.1,31.6,100,81,50,30.28,30.22,12,3,12,0.00
2013-4-5,54.0,41.7,33.4,38.7,34.1,30.8,100,76,51,30.26,30.21,11,2,11,0.00
2013-4-6,54.7,41.5,28.6,41.1,34.9,28.6,100,79,51,30.26,30.17,15,3,15,0.00
2013-4-7,47.5,40.5,37.8,42.7,39.1,35.4,100,95,78,30.17,29.97,11,3,14,0.00
2013-4-8,48.7,40.4,36.5,39.0,35.2,31.1,100,83,56,29.98,29.73,17,6,17,0.00
2013-4-9,50.2,41.2,32.5,40.0,33.2,28.8,100,75,46,29.73,29.65,17,5,17,0.00
2013-4-10,46.8,40.2,34.2,43.9,39.6,34.0,100,98,87,29.70,29.58,14,3,14,0.06
2013-4-11,48.0,41.8,36.9,42.8,40.2,36.9,100,94,79,29.58,29.40,13,4,13,0.00
2013-4-12,46.9,41.5,37.0,45.6,41.0,37.0,100,98,91,29.62,29.37,11,3,11,0.06
2013-4-13,60.4,48.5,39.4,52.9,43.7,39.4,100,86,54,29.72,29.40,13,3,13,0.02
2013-4-14,59.9,54.1,46.8,56.3,53.1,46.8,100,96,80,29.43,29.33,29,11,29,0.40
2013-4-15,62.2,53.8,49.3,55.0,50.9,47.6,100,90,67,29.70,29.39,27,8,27,0.07
2013-4-16,56.1,50.3,44.2,52.9,47.4,42.0,100,90,65,29.80,29.30,30,11,30,0.17
2013-4-17,57.4,46.6,38.8,57.2,46.5,38.8,100,99,93,29.81,29.06,23,5,23,0.77
2013-4-18,55.6,49.5,44.1,50.7,47.8,43.8,100,94,79,29.88,29.04,25,8,25,0.14
2013-4-19,62.6,49.5,35.8,46.9,41.3,35.8,100,76,49,30.40,29.88,12,3,12,0.00
2013-4-20,60.8,50.1,38.5,48.8,43.8,38.5,100,80,58,30.40,30.10,17,6,17,0.00
2013-4-21,59.4,48.4,43.0,51.4,46.7,43.0,100,94,63,30.10,29.81,14,5,14,0.12
2013-4-22,57.4,48.5,41.2,54.8,47.1,41.2,100,95,72,29.82,29.55,27,7,27,0.04
2013-4-23,60.6,51.8,46.0,50.3,46.9,43.4,100,85,62,30.01,29.67,27,8,27,0.02
2013-4-24,58.1,50.0,45.1,52.8,45.2,38.7,100,85,58,30.19,29.85,12,4,14,0.32
2013-4-25,56.1,47.4,42.1,48.1,43.1,34.4,100,86,64,30.18,29.99,16,4,16,0.02
2013-4-26,57.0,45.9,38.1,44.6,38.2,28.5,100,75,53,30.00,29.81,15,6,17,0.04
2013-4-27,59.0,48.3,39.7,41.5,37.2,33.0,100,68,40,30.11,29.92,14,5,14,0.00
2013-4-28,57.0,47.0,39.9,51.8,43.8,38.6,100,89,69,29.92,29.56,23,8,23,0.09
2013-4-29,57.2,45.3,40.6,45.2,42.2,40.1,100,90,52,30.06,29.57,17,7,17,0.00
2013-4-30,61.9,50.2,35.8,44.5,38.5,33.1,100,69,35,30.27,30.06,14,4,14,0.00
2013-5-1,60.6,49.7,42.3,50.9,42.6,35.6,100,79,47,30.24,30.07,17,5,17,0.01
2013-5-2,59.4,47.8,33.8,50.9,42.6,33.8,100,84,50,30.25,29.95,20,4,20,0.05
2013-5-3,55.8,50.5,42.4,55.8,50.5,42.4,100,100,100,29.96,29.61,19,7,19,0.51
2013-5-4,54.0,47.2,39.0,49.1,44.3,38.8,100,90,64,29.85,29.68,17,6,17,0.00
2013-5-5,52.0,49.7,48.9,51.6,49.5,48.3,100,99,95,29.90,29.85,12,4,12,0.00
2013-5-6,58.8,53.8,48.9,58.3,53.8,48.9,100,100,95,30.02,29.95,8,4,8,0.00
2013-5-7,71.4,58.8,42.3,58.4,52.2,42.3,100,80,58,30.04,29.83,11,3,11,0.00
2013-5-8,57.6,52.9,47.8,56.7,52.1,47.3,100,97,83,29.82,29.45,11,5,11,0.06
2013-5-9,58.3,48.7,42.1,50.9,47.3,42.1,100,96,64,29.50,29.30,11,4,11,0.15
2013-5-10,61.2,50.2,43.0,54.5,48.3,43.0,100,94,70,29.59,29.34,17,5,17,0.05
2013-5-11,55.6,48.4,42.3,53.1,47.6,42.3,100,97,83,29.70,29.44,22,5,22,0.08
2013-5-12,54.9,49.2,42.4,54.7,48.6,42.4,100,98,83,29.75,29.53,18,6,18,0.05
2013-5-13,53.2,44.2,36.1,49.7,43.3,36.1,100,97,77,29.58,29.38,21,8,21,0.35
2013-5-14,58.1,47.8,41.2,51.0,45.2,41.2,100,91,65,29.39,29.32,19,7,19,0.07
2013-5-15,50.7,40.5,35.4,47.4,39.6,35.4,100,97,80,29.39,29.35,12,2,12,0.00
2013-5-16,62.2,49.7,37.9,48.9,44.2,37.9,100,83,57,29.67,29.35,8,3,8,0.00
2013-5-17,70.3,53.4,38.5,51.1,45.7,38.5,100,78,46,29.84,29.68,8,2,8,0.00
2013-5-18,58.5,53.1,49.6,58.5,52.9,47.8,100,99,87,29.83,29.68,13,3,13,0.46
2013-5-19,66.6,54.5,48.9,64.4,54.4,48.9,100,100,92,29.95,29.78,8,2,9,0.04
2013-5-20,79.5,64.3,55.2,71.0,61.9,55.2,100,93,71,29.99,29.86,8,3,10,0.00
2013-5-21,70.9,59.6,48.4,57.1,52.9,48.4,100,80,52,30.06,29.98,14,3,14,0.00
2013-5-22,62.8,53.6,42.4,50.9,44.1,36.2,100,73,40,30.07,29.97,17,6,21,0.01
2013-5-23,54.7,46.9,39.6,44.6,38.5,36.0,92,73,54,29.99,29.89,20,7,23,0.00
2013-5-24,62.4,52.6,44.1,48.2,42.5,36.8,98,69,49,30.19,29.90,17,5,17,0.13
2013-5-25,69.4,48.3,37.9,50.2,43.3,33.1,100,86,40,30.19,30.08,8,2,8,0.00
2013-5-26,68.4,56.1,45.1,55.8,50.2,43.3,99,81,59,30.09,29.70,53,4,53,0.00
2013-5-27,58.5,52.1,46.4,54.8,51.4,46.4,100,98,84,29.70,29.39,61,8,61,0.06
2013-5-28,60.4,52.6,45.7,56.1,50.5,45.7,100,93,76,29.77,29.48,9,2,9,0.04
2013-5-29,68.7,57.2,43.9,61.2,53.2,43.9,100,87,67,29.90,29.77,7,2,8,0.00
2013-5-30,76.8,63.6,54.5,62.6,54.8,48.9,100,74,59,30.03,29.87,103,5,103,0.05
2013-5-31,72.0,59.0,48.7,62.5,53.1,44.1,100,82,59,30.15,30.03,12,4,12,0.05
2013-6-1,64.6,55.2,44.6,57.0,47.7,43.8,100,77,52,30.27,30.14,50,4,50,0.00
2013-6-2,76.5,57.8,42.3,52.6,48.3,42.3,100,74,43,30.41,30.27,100,4,100,0.05
2013-6-3,75.6,62.1,48.7,64.7,57.8,48.7,100,87,66,30.47,30.41,53,2,53,0.00
2013-6-4,73.6,63.9,53.1,58.7,55.7,52.9,100,77,53,30.47,30.29,11,3,11,0.00
2013-6-5,65.8,57.1,51.4,60.0,55.6,51.4,100,95,79,30.29,30.13,11,3,11,0.00
2013-6-6,77.0,60.8,48.0,61.1,54.8,48.0,100,83,53,30.24,30.15,11,2,11,0.05
2013-6-7,67.3,59.2,47.1,59.7,54.6,47.1,100,85,71,30.31,30.23,11,3,11,0.00
2013-6-8,79.3,62.4,46.0,60.1,53.9,46.0,100,77,49,30.30,30.08,26,4,26,0.02
2013-6-9,70.9,58.0,50.0,62.0,55.5,50.0,100,92,72,30.11,29.96,11,3,11,0.00
2013-6-10,68.0,57.1,51.8,60.4,55.0,51.8,100,93,74,30.00,29.87,11,4,11,0.00
2013-6-11,65.3,56.2,47.3,60.3,55.4,47.3,100,97,77,29.88,29.64,8,3,8,0.09
2013-6-12,70.9,60.0,52.3,62.5,57.6,52.3,100,92,72,29.64,29.54,17,4,17,0.07
2013-6-13,67.5,57.8,48.7,56.9,51.1,48.3,100,80,56,29.74,29.52,16,5,16,0.00
2013-6-14,69.3,58.0,47.1,61.5,53.7,47.1,100,87,63,29.77,29.53,13,4,13,0.06
2013-6-15,59.9,52.8,49.5,56.9,52.1,49.5,100,97,78,29.54,29.36,16,5,16,0.19
2013-6-16,73.0,59.4,48.4,61.3,54.5,48.4,100,85,59,29.96,29.54,11,3,11,0.00
2013-6-17,74.5,61.0,50.4,62.5,57.8,50.4,100,90,62,30.04,29.96,8,2,8,0.00
2013-6-18,76.1,63.7,55.6,65.1,59.3,55.6,100,87,59,30.00,29.88,10,2,10,0.00
2013-6-19,72.9,61.1,52.3,59.2,54.6,52.3,100,82,54,29.99,29.92,16,4,16,0.00
2013-6-20,82.6,64.6,51.4,63.4,57.5,51.4,100,80,45,29.99,29.74,11,2,13,0.00
2013-6-21,74.1,64.4,58.3,64.7,59.3,52.2,100,84,62,29.76,29.55,11,3,12,0.00
2013-6-22,68.5,59.2,52.7,62.3,56.3,52.7,100,91,67,29.55,29.24,13,4,13,0.05
2013-6-23,69.3,58.6,50.9,61.3,54.9,50.9,100,88,69,29.91,29.32,17,5,17,0.01
2013-6-24,68.7,59.0,51.3,53.9,50.2,47.8,100,74,56,30.23,29.91,14,4,14,0.00
2013-6-25,67.3,58.0,46.9,57.7,53.0,46.9,100,84,62,30.35,30.22,10,3,10,0.00
2013-6-26,73.9,62.6,48.7,58.5,53.8,48.6,100,76,51,30.40,30.35,16,4,16,0.00
2013-6-27,64.8,56.6,51.8,62.1,56.4,51.7,100,99,92,30.38,30.09,10,4,56,0.06
2013-6-28,70.2,59.2,52.3,66.2,57.4,48.1,100,94,76,30.09,29.86,16,6,16,0.09
2013-6-29,63.3,56.4,50.0,59.0,54.8,50.0,100,95,79,30.10,30.02,17,5,17,0.00
2013-6-30,67.5,59.4,52.3,65.2,58.7,52.3,100,98,81,30.06,29.81,17,6,17,0.02
2013-7-1,67.3,58.0,49.8,58.2,51.8,47.5,100,82,58,29.86,29.79,15,6,16,0.04
2013-7-2,59.5,55.3,50.4,58.7,55.1,50.4,100,99,88,29.84,29.39,15,3,15,0.08
2013-7-3,70.9,61.3,55.6,63.5,59.1,55.6,100,93,72,29.77,29.41,14,4,14,0.02
2013-7-4,69.8,61.1,55.2,67.5,58.7,54.1,100,92,72,30.09,29.66,22,6,22,0.30
2013-7-5,71.6,62.0,54.1,63.1,58.9,54.1,100,90,72,30.33,30.08,19,5,19,0.01
2013-7-6,78.1,65.9,50.0,65.7,60.3,50.0,100,84,59,30.38,30.26,14,4,14,0.05
2013-7-7,83.5,70.3,59.0,68.2,63.1,59.0,100,81,49,30.57,30.38,10,4,10,0.00
2013-7-8,88.7,68.1,56.7,74.2,64.4,56.7,100,89,58,30.60,30.43,14,2,14,0.00
2013-7-9,71.8,63.2,60.3,71.8,63.2,60.1,100,100,99,30.43,30.27,100,4,100,0.24
2013-7-10,77.5,64.8,56.8,68.9,62.5,56.9,100,93,72,30.38,30.30,9,4,9,0.05
2013-7-11,88.3,68.1,55.8,76.4,65.5,55.8,100,92,67,30.33,30.20,7,2,8,0.00
2013-7-12,90.0,74.3,58.6,75.2,68.0,58.7,100,83,57,30.22,30.15,11,4,11,0.00
2013-7-13,84.7,68.9,59.2,71.2,65.6,59.2,100,91,63,30.28,30.19,11,4,11,0.00
2013-7-14,75.4,65.5,57.2,63.9,59.5,54.9,100,82,62,30.27,30.13,15,5,15,0.00
2013-7-15,74.1,64.1,56.5,66.3,61.4,55.9,100,91,76,30.16,30.13,15,5,15,0.05
2013-7-16,72.3,63.6,61.7,70.5,63.6,61.7,100,100,94,30.17,30.13,10,4,10,0.00
2013-7-17,78.6,68.7,5.4,67.6,63.0,5.4,100,84,62,30.29,30.19,12,4,12,0.00
2013-7-18,87.6,75.4,61.5,76.3,69.8,61.5,100,84,66,30.33,30.28,14,3,14,0.00
2013-7-19,84.2,70.4,55.4,70.3,64.6,55.4,100,83,59,30.37,30.29,11,3,11,0.00
2013-7-20,78.3,66.8,57.7,70.5,63.9,57.8,100,91,73,30.34,30.23,13,4,13,0.00
2013-7-21,73.4,63.8,58.1,66.2,61.9,58.1,100,94,77,30.26,30.10,14,5,14,0.00
2013-7-22,73.6,63.9,60.6,69.6,63.6,60.6,100,99,87,30.11,29.95,11,4,11,0.00
2013-7-23,75.4,65.2,61.3,74.8,65.2,61.4,100,100,98,29.96,29.81,10,3,11,0.19
2013-7-24,82.4,69.5,58.8,76.1,67.2,58.8,100,93,66,29.85,29.81,11,2,11,0.00
2013-7-25,74.3,64.4,59.2,73.4,64.4,59.2,100,100,95,29.84,29.75,10,2,10,0.12
2013-7-26,73.2,64.5,59.7,73.1,64.4,59.7,100,100,94,29.79,29.76,9,1,9,0.07
2013-8-12,70.7,61.1,52.2,61.3,56.1,52.2,100,85,64,29.98,29.79,12,5,12,0.00
2013-8-13,70.7,58.1,-10.1,58.3,53.1,-11.8,100,85,62,30.10,29.99,8,4,8,0.00
2013-8-14,75.2,63.5,53.1,66.4,61.4,53.1,100,93,71,30.09,29.89,8,2,8,0.00
2013-8-15,72.0,65.0,60.8,71.7,65.0,60.8,100,100,98,29.88,29.69,10,4,10,0.15
2013-8-16,72.1,62.5,53.2,66.9,60.9,53.2,100,95,77,29.82,29.69,105,6,105,0.01
2013-8-17,73.6,61.2,54.3,70.5,60.9,54.3,100,99,83,29.79,29.34,11,5,11,0.26
2013-8-18,66.9,59.7,53.2,61.0,56.9,53.2,100,91,74,29.75,29.40,17,6,17,0.05
2013-8-19,69.1,59.5,52.9,63.4,57.5,52.9,100,93,70,30.12,29.75,17,5,17,0.00
2013-8-20,70.9,61.1,54.7,64.7,59.8,54.7,100,96,77,30.20,30.09,11,3,11,0.06
2013-8-21,77.4,65.1,58.8,71.0,64.1,58.8,100,97,78,30.10,29.98,11,2,11,0.08
2013-8-22,70.5,62.0,58.8,70.4,62.0,58.8,100,100,100,30.09,29.97,9,3,9,0.00
2013-8-23,71.8,62.9,56.5,71.5,62.8,56.5,100,100,92,29.97,29.82,10,2,10,0.00
2013-8-24,74.3,62.4,57.7,66.2,60.4,57.8,100,94,67,29.93,29.85,8,2,8,0.00
2013-8-25,78.3,63.5,50.9,70.9,61.5,50.9,100,94,74,30.12,29.93,6,2,6,0.00
2013-8-26,77.0,64.1,54.9,70.2,62.2,54.9,100,94,77,30.14,30.05,9,2,9,0.00
2013-8-27,73.8,61.3,53.4,70.2,60.8,53.4,100,98,85,30.17,30.03,11,3,11,0.00
2013-8-28,70.3,59.7,53.4,64.6,58.0,52.9,100,95,77,30.19,30.04,13,3,13,0.00
2013-8-29,67.1,60.1,53.4,66.7,60.0,53.4,100,100,93,30.05,29.96,11,4,12,0.02
2013-8-30,67.3,60.3,55.6,67.3,60.4,55.6,100,100,100,29.98,29.78,12,3,14,0.00
2013-8-31,66.0,56.7,49.3,57.0,52.1,47.5,100,86,57,30.24,30.03,14,5,14,0.02
2013-9-1,60.8,58.0,53.8,60.2,57.5,3.3,100,99,11,30.22,30.07,18,8,18,0.00
2013-9-2,70.9,63.7,58.6,69.8,63.7,58.7,100,100,95,30.20,30.05,23,7,23,0.00
2013-9-3,75.0,64.8,58.3,70.5,62.8,58.3,100,94,70,30.21,30.14,15,4,15,0.00
2013-9-4,75.6,62.6,51.8,65.5,59.2,51.8,100,90,64,30.14,29.86,14,3,14,0.00
2013-9-5,70.7,59.3,47.1,57.8,53.4,47.0,100,83,53,29.88,29.83,9,3,10,0.00
2013-9-6,62.2,51.3,44.4,55.7,50.4,44.4,100,97,78,29.91,29.84,8,2,8,0.33
2013-9-7,65.7,54.1,47.1,60.8,53.1,47.1,100,97,71,29.89,29.71,13,3,14,0.28
2013-9-8,66.4,54.7,43.5,58.5,52.1,43.5,100,92,71,29.95,29.89,8,2,8,0.00
2013-9-9,69.6,55.2,49.1,62.1,54.1,49.1,100,97,71,30.13,29.92,9,1,9,0.01
2013-9-10,71.8,58.6,48.9,59.0,54.1,48.9,100,86,63,30.20,30.13,12,3,13,0.00
2013-9-11,62.6,56.6,50.9,62.6,56.6,50.9,100,100,100,30.20,30.04,8,2,8,0.28
2013-9-12,69.3,60.2,54.7,67.1,59.9,54.7,100,99,88,30.05,29.82,10,3,10,0.11
2013-9-13,56.1,52.2,48.6,56.1,52.2,48.6,100,100,100,30.08,29.92,50,2,50,0.04
2013-9-14,68.9,53.6,39.6,58.5,50.5,39.6,100,90,63,30.04,29.88,98,4,98,0.02
2013-9-15,59.9,51.9,43.2,59.7,51.6,43.2,100,99,79,29.88,29.14,28,6,28,0.56
2013-9-16,60.3,48.7,41.7,55.1,47.6,41.7,100,96,79,29.28,29.22,19,6,19,0.04
2013-9-17,60.4,51.3,45.3,56.7,50.2,45.3,100,96,77,29.35,29.24,14,5,14,0.00
2013-9-18,62.2,50.9,42.6,56.2,48.8,42.6,100,93,73,29.68,29.35,19,5,19,0.01
2013-9-19,54.7,49.3,45.3,54.7,49.3,45.3,100,100,100,29.73,29.48,11,2,11,0.24
2013-9-20,64.6,54.7,46.0,60.2,53.4,44.4,100,96,79,29.99,29.73,13,5,13,0.01
2013-9-21,63.7,58.0,51.3,63.7,58.1,51.3,100,100,100,30.05,29.97,11,3,11,0.00
2013-9-22,73.6,63.8,57.7,69.5,63.2,57.8,100,98,81,30.24,30.05,13,5,13,0.01
2013-9-23,70.0,60.0,50.5,69.4,60.0,50.5,100,100,97,30.24,30.07,8,1,8,0.00
2013-9-24,62.4,59.3,57.2,62.4,59.3,57.0,100,100,100,30.07,29.92,7,2,7,0.01
2013-9-25,57.0,54.7,47.3,57.0,54.7,47.1,100,100,100,30.01,29.85,8,2,9,0.01
2013-9-26,61.9,52.2,43.7,57.9,51.4,43.7,100,97,81,30.08,30.01,8,2,8,0.00
2013-9-27,61.9,56.0,52.2,61.7,56.0,52.2,100,100,100,30.02,29.89,4,1,4,0.05
2013-9-28,72.9,58.3,49.6,68.9,57.3,49.6,100,97,77,29.90,29.80,9,1,9,0.00
2013-9-29,67.5,55.6,46.6,60.6,54.2,46.6,100,96,76,29.90,29.84,13,4,13,0.00
2013-9-30,62.2,56.0,52.0,58.9,55.4,52.0,100,98,86,29.87,29.78,12,5,13,0.00
2013-10-1,63.3,55.6,51.4,58.5,54.3,51.4,100,96,76,29.87,29.78,14,5,14,0.00
2013-10-2,59.7,56.6,54.3,59.7,56.6,54.3,100,100,100,29.81,29.71,12,4,12,0.38
2013-10-3,65.8,59.4,56.3,65.9,59.4,56.3,100,100,100,29.73,29.49,8,3,8,0.63
2013-10-4,67.3,58.6,55.8,67.0,58.7,55.8,100,100,100,29.77,29.49,11,2,11,0.13
2013-10-5,64.4,56.8,52.3,62.4,56.6,52.3,100,99,91,30.05,29.77,14,3,14,0.01
2013-10-6,65.8,59.9,53.4,65.8,59.9,53.4,100,100,100,30.05,30.00,8,3,8,0.04
2013-10-7,71.4,62.9,60.6,70.5,62.9,60.6,100,100,97,30.02,29.94,14,4,14,0.04
2013-10-8,63.0,57.5,52.0,63.0,57.5,52.0,100,100,97,30.12,29.93,20,6,20,0.06
2013-10-9,52.2,50.1,48.0,52.2,50.1,48.0,100,100,100,30.11,29.94,10,4,10,0.00
2013-10-10,56.7,47.6,41.0,46.2,42.5,38.0,98,83,65,30.43,30.13,14,4,14,0.00
2013-10-11,48.7,42.7,37.9,46.6,42.2,37.9,100,98,92,30.48,30.42,12,3,12,0.00
2013-10-12,60.1,52.6,46.4,56.2,52.0,46.4,100,98,83,30.43,30.25,9,4,9,0.00
2013-10-13,58.5,50.4,45.1,57.6,50.3,45.1,100,100,94,30.26,30.01,10,3,10,0.01
2013-10-14,53.8,50.1,48.0,53.8,50.1,48.0,100,100,100,30.02,29.90,6,2,6,0.11
2013-10-15,55.4,50.5,46.4,55.4,50.5,46.4,100,100,100,29.97,29.88,7,2,7,0.00
2013-10-16,53.6,47.6,39.4,53.6,47.6,39.4,100,100,100,29.95,29.55,11,2,11,0.34
2013-10-17,55.8,49.0,46.4,52.0,49.0,46.4,100,100,100,29.94,29.60,7,2,7,0.12
2013-10-18,53.2,49.6,48.4,51.1,49.6,48.0,100,100,100,29.97,29.94,8,3,8,0.00
2013-10-19,55.9,54.0,51.6,55.9,54.0,51.6,100,100,100,29.64,29.41,8,2,8,0.57
2013-10-20,60.6,53.6,48.7,60.6,53.6,48.7,100,100,100,29.44,29.35,7,2,7,0.14
2013-10-21,59.0,54.1,50.9,59.0,54.1,50.9,100,100,100,29.47,29.21,14,2,14,0.31
2013-10-22,67.3,57.1,52.9,67.1,57.1,52.9,100,100,100,29.23,29.04,7,1,7,0.38
2013-10-23,59.9,52.4,44.8,59.9,52.4,44.8,100,100,91,29.52,28.94,17,3,17,0.15
2013-10-24,61.7,49.6,45.3,57.8,49.0,45.1,100,98,76,29.86,29.52,14,3,14,0.01
2013-10-25,64.4,53.2,46.9,64.2,53.2,45.5,100,100,100,29.81,29.25,14,3,14,0.25
2013-10-26,56.1,52.8,47.1,56.0,52.8,46.9,100,100,95,29.40,29.09,16,4,16,0.07
2013-10-27,56.5,49.4,44.2,56.1,49.4,44.1,100,100,100,29.13,28.77,21,6,21,0.51
2013-10-28,57.6,49.1,45.1,56.7,49.1,45.1,100,100,94,29.28,28.83,14,4,14,0.02
2013-10-29,56.5,47.2,41.5,53.6,46.5,41.5,100,97,81,29.83,29.29,17,5,17,0.00
2013-10-30,56.1,47.3,39.0,55.3,47.2,39.0,100,100,95,29.87,29.54,13,4,14,0.18
2013-10-31,57.0,47.4,41.7,55.1,47.2,41.5,100,100,91,29.77,29.54,23,5,23,0.12
2013-11-1,55.8,46.9,41.0,53.1,46.5,41.0,100,99,87,29.57,29.50,19,5,19,0.05
2013-11-2,45.7,40.6,34.3,45.7,40.6,34.3,100,100,100,29.50,28.79,12,3,12,0.28
2013-11-3,53.2,44.6,36.7,48.3,43.3,36.5,100,96,77,29.23,28.90,17,6,17,0.01
2013-11-4,56.5,39.8,31.5,49.9,38.8,31.5,100,97,73,29.33,29.17,9,3,9,0.00
2013-11-5,42.3,35.6,28.0,42.3,35.6,28.1,100,100,100,29.29,29.12,12,2,12,0.08
2013-11-6,45.5,41.2,37.8,45.5,41.2,37.8,100,100,100,29.32,29.18,8,3,8,0.05
2013-11-7,51.6,43.1,37.4,51.0,43.1,37.4,100,100,95,29.42,29.30,21,5,21,0.38
2013-11-8,54.5,45.5,42.1,53.6,45.3,42.1,100,99,92,29.46,29.40,12,4,12,0.07